createdAt,value
2019-01-07T00:00:03.549Z,1021.17
2019-01-07T00:01:05.115Z,1021.16
2019-01-07T00:02:06.491Z,1021.18
2019-01-07T00:03:07.877Z,1021.17
2019-01-07T00:04:09.364Z,1021.16
2019-01-07T00:05:10.812Z,1021.13
2019-01-07T00:06:12.120Z,1021.13
2019-01-07T00:07:13.677Z,1021.12
2019-01-07T00:08:15.057Z,1021.14
2019-01-07T00:09:16.435Z,1021.16
2019-01-07T00:10:17.810Z,1021.14
2019-01-07T00:11:19.186Z,1021.14
2019-01-07T00:12:20.563Z,1021.18
2019-01-07T00:13:21.940Z,1021.11
2019-01-07T00:14:23.315Z,1021.09
2019-01-07T00:15:24.700Z,1021.08
2019-01-07T00:16:26.071Z,1021.14
2019-01-07T00:17:27.447Z,1021.09
2019-01-07T00:18:28.826Z,1021.09
2019-01-07T00:19:30.208Z,1021.12
2019-01-07T00:20:31.593Z,1021.15
2019-01-07T00:21:32.966Z,1021.16
2019-01-07T00:22:34.342Z,1021.17
2019-01-07T00:23:35.722Z,1021.20
2019-01-07T00:24:37.111Z,1021.16
2019-01-07T00:25:38.490Z,1021.15
2019-01-07T00:26:39.871Z,1021.13
2019-01-07T00:27:41.258Z,1021.15
2019-01-07T00:28:42.636Z,1021.14
2019-01-07T00:29:44.013Z,1021.13
2019-01-07T00:30:45.393Z,1021.16
2019-01-07T00:31:46.769Z,1021.15
2019-01-07T00:32:48.154Z,1021.16
2019-01-07T00:33:49.539Z,1021.14
2019-01-07T00:34:50.925Z,1021.12
2019-01-07T00:35:53.417Z,1021.16
2019-01-07T00:36:53.637Z,1021.16
2019-01-07T00:37:55.011Z,1021.09
2019-01-07T00:38:56.387Z,1021.15
2019-01-07T00:39:57.769Z,1021.21
2019-01-07T00:40:59.143Z,1021.17
2019-01-07T00:42:00.521Z,1021.18
2019-01-07T00:43:01.891Z,1021.22
2019-01-07T00:44:03.278Z,1021.18
2019-01-07T00:45:04.656Z,1021.16
2019-01-07T00:46:06.026Z,1021.21
2019-01-07T00:47:07.413Z,1021.16
2019-01-07T00:48:08.806Z,1021.21
2019-01-07T00:49:10.190Z,1021.20
2019-01-07T00:50:11.564Z,1021.20
2019-01-07T00:51:12.948Z,1021.24
2019-01-07T00:52:14.380Z,1021.26
2019-01-07T00:53:15.764Z,1021.28
2019-01-07T00:54:17.140Z,1021.23
2019-01-07T00:55:18.593Z,1021.30
2019-01-07T00:56:19.962Z,1021.28
2019-01-07T00:57:21.340Z,1021.23
2019-01-07T00:58:22.719Z,1021.23
2019-01-07T00:59:24.092Z,1021.17
2019-01-07T01:00:25.471Z,1021.19
2019-01-07T01:01:26.848Z,1021.19
2019-01-07T01:02:28.225Z,1021.22
2019-01-07T01:03:29.603Z,1021.17
2019-01-07T01:04:30.973Z,1021.23
2019-01-07T01:05:32.348Z,1021.19
2019-01-07T01:06:33.728Z,1021.15
2019-01-07T01:07:35.113Z,1021.17
2019-01-07T01:08:36.492Z,1021.17
2019-01-07T01:09:37.870Z,1021.15
2019-01-07T01:10:39.237Z,1021.15
2019-01-07T01:11:40.615Z,1021.17
2019-01-07T01:12:42.105Z,1021.18
2019-01-07T01:13:43.486Z,1021.15
2019-01-07T01:14:44.870Z,1021.17
2019-01-07T01:15:46.248Z,1021.16
2019-01-07T01:16:47.630Z,1021.18
2019-01-07T01:17:49.012Z,1021.18
2019-01-07T01:18:50.390Z,1021.18
2019-01-07T01:19:51.769Z,1021.14
2019-01-07T01:20:53.148Z,1021.18
2019-01-07T01:21:54.530Z,1021.20
2019-01-07T01:22:55.893Z,1021.22
2019-01-07T01:23:57.286Z,1021.24
2019-01-07T01:24:58.683Z,1021.21
2019-01-07T01:26:00.062Z,1021.21
2019-01-07T01:27:01.439Z,1021.20
2019-01-07T01:28:02.892Z,1021.17
2019-01-07T01:29:04.275Z,1021.19
2019-01-07T01:30:05.663Z,1021.17
2019-01-07T01:31:07.033Z,1021.17
2019-01-07T01:32:08.409Z,1021.14
2019-01-07T01:33:09.784Z,1021.15
2019-01-07T01:34:11.153Z,1021.11
2019-01-07T01:35:12.537Z,1021.16
2019-01-07T01:36:13.915Z,1021.13
2019-01-07T01:37:15.298Z,1021.12
2019-01-07T01:38:16.683Z,1021.12
2019-01-07T01:39:18.051Z,1021.15
2019-01-07T01:40:19.436Z,1021.17
2019-01-07T01:41:20.846Z,1021.12
2019-01-07T01:42:22.215Z,1021.11
2019-01-07T01:43:23.599Z,1021.15
2019-01-07T01:44:24.973Z,1021.10
2019-01-07T01:45:26.351Z,1021.17
2019-01-07T01:46:27.728Z,1021.17
2019-01-07T01:47:29.110Z,1021.16
2019-01-07T01:48:30.486Z,1021.13
2019-01-07T01:49:31.873Z,1021.11
2019-01-07T01:50:33.242Z,1021.10
2019-01-07T11:03:15.735Z,1018.24
2019-01-07T11:04:17.110Z,1018.17
2019-01-07T11:05:18.498Z,1018.17
2019-01-07T11:06:19.882Z,1018.19
2019-01-07T11:07:21.255Z,1018.18
2019-01-07T11:08:22.636Z,1018.14
2019-01-07T11:09:24.020Z,1018.12
2019-01-07T11:10:25.399Z,1018.13
2019-01-07T11:11:26.791Z,1018.12
2019-01-07T11:12:28.169Z,1018.08
2019-01-07T11:13:29.548Z,1018.09
2019-01-07T11:14:30.932Z,1018.00
2019-01-07T11:15:32.310Z,1017.97
2019-01-07T11:16:33.698Z,1017.97
2019-01-07T11:17:35.077Z,1017.95
2019-01-07T11:18:36.456Z,1018.00
2019-01-07T11:19:43.589Z,1017.98
2019-01-07T11:20:39.191Z,1017.95
2019-01-07T11:21:40.575Z,1017.88
2019-01-07T11:22:41.967Z,1017.95
2019-01-07T11:23:43.349Z,1017.93
2019-01-07T11:24:44.737Z,1017.89
2019-01-07T11:25:46.122Z,1017.84
2019-01-07T11:26:47.511Z,1017.85
2019-01-07T11:27:48.904Z,1017.84
2019-01-07T11:28:50.279Z,1017.85
2019-01-07T11:29:53.200Z,1017.87
2019-01-07T11:30:53.010Z,1017.83
2019-01-07T11:31:54.393Z,1017.80
2019-01-07T11:32:55.773Z,1017.77
2019-01-07T11:33:57.157Z,1017.74
2019-01-07T11:34:58.533Z,1017.73
2019-01-07T11:35:59.921Z,1017.76
2019-01-07T11:37:01.316Z,1017.76
2019-01-07T11:38:02.704Z,1017.72
2019-01-07T11:39:04.186Z,1017.67
2019-01-07T11:40:05.578Z,1017.68
2019-01-07T11:41:06.966Z,1017.63
2019-01-07T11:42:08.350Z,1017.65
2019-01-07T11:43:09.736Z,1017.65
2019-01-07T11:44:11.121Z,1017.62
2019-01-07T11:45:12.503Z,1017.63
2019-01-07T11:46:13.883Z,1017.65
2019-01-07T11:47:15.270Z,1017.59
2019-01-07T11:48:16.657Z,1017.55
2019-01-07T11:49:18.039Z,1017.55
2019-01-07T11:50:19.433Z,1017.53
2019-01-07T11:51:20.822Z,1017.53
2019-01-07T11:52:22.211Z,1017.50
2019-01-07T11:53:23.593Z,1017.54
2019-01-07T11:54:24.969Z,1017.49
2019-01-07T11:55:26.366Z,1017.49
2019-01-07T11:56:27.717Z,1017.46
2019-01-07T11:57:29.105Z,1017.43
2019-01-07T11:58:30.495Z,1017.43
2019-01-07T11:59:31.886Z,1017.43
2019-01-07T12:00:33.282Z,1017.40
2019-01-07T12:01:34.670Z,1017.37
2019-01-07T12:02:36.050Z,1017.38
2019-01-07T12:03:37.436Z,1017.33
2019-01-07T12:04:38.824Z,1017.33
2019-01-07T12:05:40.210Z,1017.31
2019-01-07T12:06:41.599Z,1017.30
2019-01-07T12:07:42.984Z,1017.28
2019-01-07T12:08:44.373Z,1017.26
2019-01-07T12:09:52.651Z,1017.27
2019-01-07T12:10:47.121Z,1017.28
2019-01-07T12:11:48.497Z,1017.23
2019-01-07T12:12:49.880Z,1017.23
2019-01-07T12:13:51.262Z,1017.23
2019-01-07T12:14:52.646Z,1017.24
2019-01-07T12:15:54.033Z,1017.18
2019-01-07T12:16:55.408Z,1017.18
2019-01-07T12:17:56.791Z,1017.19
2019-01-07T12:18:58.177Z,1017.20
2019-01-07T12:19:59.565Z,1017.16
2019-01-07T12:21:00.951Z,1017.13
2019-01-07T12:22:02.346Z,1017.11
2019-01-07T12:23:03.723Z,1017.09
2019-01-07T12:24:05.119Z,1017.13
2019-01-07T12:57:00.444Z,1016.90
2019-01-07T12:58:01.864Z,1016.88
2019-01-07T12:59:03.282Z,1016.84
2019-01-07T13:00:04.660Z,1016.89
2019-01-07T13:01:06.088Z,1016.86
2019-01-07T13:02:07.482Z,1016.84
2019-01-07T13:03:08.902Z,1016.89
2019-01-07T13:04:11.392Z,1016.85
2019-01-07T13:05:13.534Z,1016.84
2019-01-07T13:06:13.052Z,1016.88
2019-01-07T13:07:14.466Z,1016.87
2019-01-07T13:08:15.889Z,1016.90
2019-01-07T13:09:17.300Z,1016.92
2019-01-07T13:10:18.725Z,1016.79
2019-01-07T13:11:20.106Z,1016.80
2019-01-07T13:12:21.537Z,1016.84
2019-01-07T13:13:22.935Z,1016.83
2019-01-07T13:14:24.343Z,1016.83
2019-01-07T13:15:25.751Z,1016.83
2019-01-07T13:16:27.150Z,1016.81
2019-01-07T13:17:28.562Z,1016.78
2019-01-07T13:18:29.993Z,1016.78
2019-01-07T13:19:31.403Z,1016.77
2019-01-07T13:20:32.785Z,1016.77
2019-01-07T13:21:34.177Z,1016.75
2019-01-07T13:22:35.563Z,1016.70
2019-01-07T13:23:36.945Z,1016.74
2019-01-07T13:24:38.328Z,1016.72
2019-01-07T13:25:39.724Z,1016.73
2019-01-07T13:26:41.117Z,1016.70
2019-01-07T13:27:42.509Z,1016.67
2019-01-07T13:28:45.362Z,1016.65
2019-01-07T13:29:45.230Z,1016.64
2019-01-07T13:30:46.612Z,1016.63
2019-01-07T13:31:48.002Z,1016.64
2019-01-07T13:32:49.388Z,1016.61
2019-01-07T13:33:50.774Z,1016.60
2019-01-07T13:34:52.180Z,1016.61
2019-01-07T13:35:53.554Z,1016.61
2019-01-07T13:36:56.374Z,1016.62
2019-01-07T13:37:56.294Z,1016.63
2019-01-07T13:38:57.674Z,1016.61
2019-01-07T13:39:59.052Z,1016.61
2019-01-07T13:41:00.440Z,1016.58
2019-01-07T13:42:01.832Z,1016.56
2019-01-07T13:43:03.217Z,1016.60
2019-01-07T13:44:04.555Z,1016.56
2019-01-07T13:45:05.941Z,1016.56
2019-01-07T13:46:07.332Z,1016.53
2019-01-07T13:47:08.735Z,1016.51
2019-01-07T13:48:10.068Z,1016.51
2019-01-07T13:49:11.453Z,1016.49
2019-01-07T13:50:12.844Z,1016.53
2019-01-07T13:51:14.225Z,1016.46
2019-01-07T13:52:15.610Z,1016.46
2019-01-07T13:53:17.007Z,1016.49
2019-01-07T13:54:18.395Z,1016.51
2019-01-07T13:55:19.776Z,1016.48
2019-01-07T13:56:21.161Z,1016.45
2019-01-07T13:57:22.562Z,1016.45
2019-01-07T13:58:23.954Z,1016.44
2019-01-07T13:59:25.339Z,1016.45
2019-01-07T14:00:26.722Z,1016.37
2019-01-07T14:01:28.106Z,1016.41
2019-01-07T14:02:29.496Z,1016.38
2019-01-07T14:03:30.886Z,1016.39
2019-01-07T14:04:32.264Z,1016.38
2019-01-07T14:05:33.612Z,1016.33
2019-01-07T14:06:35.000Z,1016.31
2019-01-07T14:07:36.380Z,1016.29
2019-01-07T14:08:37.792Z,1016.27
2019-01-07T14:09:39.169Z,1016.24
2019-01-07T14:10:40.553Z,1016.28
2019-01-07T14:11:41.941Z,1016.29
2019-01-07T14:12:43.331Z,1016.30
2019-01-07T14:13:44.718Z,1016.27
2019-01-07T14:14:46.120Z,1016.26
2019-01-07T14:15:47.517Z,1016.18
2019-01-07T14:16:48.897Z,1016.19
2019-01-07T14:17:50.297Z,1016.19
2019-01-07T14:18:51.683Z,1016.16
2019-01-07T14:19:53.071Z,1016.15
2019-01-07T14:20:54.449Z,1016.16
2019-01-07T14:21:55.838Z,1016.18
2019-01-07T14:22:57.224Z,1016.15
2019-01-07T14:23:58.612Z,1016.15
2019-01-07T14:24:59.996Z,1016.11
2019-01-07T14:26:01.381Z,1016.16
2019-01-07T14:27:02.765Z,1016.18
2019-01-07T14:28:04.162Z,1016.15
2019-01-07T14:29:05.541Z,1016.10
2019-01-07T14:30:06.938Z,1016.09
2019-01-07T14:31:08.320Z,1016.09
2019-01-07T14:32:09.712Z,1016.14
2019-01-07T14:33:11.095Z,1016.12
2019-01-07T14:34:12.489Z,1016.10
2019-01-07T14:35:13.867Z,1016.07
2019-01-07T14:36:15.261Z,1016.07
2019-01-07T14:37:16.652Z,1016.02
2019-01-07T14:38:18.033Z,1016.08
2019-01-07T14:39:19.440Z,1016.01
2019-01-07T17:36:37.444Z,1012.57
2019-01-07T17:37:38.843Z,1012.56
2019-01-07T17:38:40.237Z,1012.54
2019-01-07T17:39:41.629Z,1012.49
2019-01-07T17:40:43.010Z,1012.46
2019-01-07T17:41:44.391Z,1012.40
2019-01-07T17:42:45.774Z,1012.36
2019-01-07T17:43:47.163Z,1012.35
2019-01-07T17:44:48.544Z,1012.37
2019-01-07T17:45:49.920Z,1012.35
2019-01-07T17:46:51.320Z,1012.27
2019-01-07T17:47:52.705Z,1012.31
2019-01-07T17:48:54.090Z,1012.28
2019-01-07T17:49:55.494Z,1012.27
2019-01-07T17:50:56.880Z,1012.26
2019-01-07T17:51:58.258Z,1012.21
2019-01-07T17:52:59.632Z,1012.20
2019-01-07T17:54:01.024Z,1012.12
2019-01-07T17:55:02.413Z,1012.19
2019-01-07T17:56:03.797Z,1012.08
2019-01-07T17:57:05.165Z,1012.00
2019-01-07T17:58:06.546Z,1012.02
2019-01-07T17:59:07.935Z,1011.96
2019-01-07T18:00:09.317Z,1011.93
2019-01-07T18:01:10.697Z,1011.92
2019-01-07T18:02:12.083Z,1011.90
2019-01-07T18:03:13.467Z,1011.82
2019-01-07T18:04:14.848Z,1011.80
2019-01-07T18:05:16.243Z,1011.78
2019-01-07T18:06:17.634Z,1011.78
2019-01-07T18:07:19.028Z,1011.79
2019-01-07T18:08:20.401Z,1011.78
2019-01-07T18:09:21.781Z,1011.73
2019-01-07T18:10:23.178Z,1011.74
2019-01-07T18:11:24.557Z,1011.66
2019-01-07T18:12:25.944Z,1011.65
2019-01-07T18:13:27.354Z,1011.62
2019-01-07T18:14:28.734Z,1011.61
2019-01-07T18:15:30.112Z,1011.61
2019-01-07T18:16:31.489Z,1011.59
2019-01-07T18:17:32.878Z,1011.52
2019-01-07T18:18:34.262Z,1011.58
2019-01-07T18:19:36.174Z,1011.48
2019-01-07T18:20:36.987Z,1011.55
2019-01-07T18:21:38.360Z,1011.50
2019-01-07T18:22:39.738Z,1011.50
2019-01-07T18:23:41.129Z,1011.48
2019-01-07T18:24:42.533Z,1011.47
2019-01-07T18:25:43.930Z,1011.43
2019-01-07T18:26:45.304Z,1011.41
2019-01-07T18:27:46.681Z,1011.45
2019-01-07T18:28:48.072Z,1011.40
2019-01-07T18:29:49.475Z,1011.41
2019-01-07T18:30:50.855Z,1011.37
2019-01-07T18:31:52.237Z,1011.32
2019-01-07T18:32:53.617Z,1011.25
2019-01-07T18:33:54.998Z,1011.24
2019-01-07T18:34:56.369Z,1011.20
2019-01-07T18:35:57.766Z,1011.11
2019-01-07T18:36:59.155Z,1011.14
2019-01-07T18:38:00.540Z,1011.04
2019-01-07T18:39:01.922Z,1010.98
2019-01-07T18:40:03.324Z,1010.92
2019-01-07T18:41:04.699Z,1010.88
2019-01-07T18:42:06.084Z,1010.81
2019-01-07T18:43:07.466Z,1010.80
2019-01-07T18:44:08.850Z,1010.74
2019-01-07T18:45:10.240Z,1010.80
2019-01-07T18:46:11.618Z,1010.75
2019-01-07T18:47:13.005Z,1010.65
2019-01-07T18:48:14.386Z,1010.61
2019-01-07T18:49:15.770Z,1010.60
2019-01-07T18:50:17.160Z,1010.62
2019-01-07T18:51:18.536Z,1010.58
2019-01-07T18:52:19.954Z,1010.55
2019-01-07T18:53:21.347Z,1010.53
2019-01-07T18:54:22.720Z,1010.50
2019-01-07T18:55:24.105Z,1010.54
2019-01-07T18:56:25.496Z,1010.40
2019-01-07T18:57:26.867Z,1010.54
2019-01-07T18:58:28.249Z,1010.38
2019-01-07T18:59:29.640Z,1010.45
2019-01-07T19:00:31.027Z,1010.41
2019-01-07T19:01:32.391Z,1010.33
2019-01-07T19:02:33.775Z,1010.29
2019-01-07T19:03:35.160Z,1010.28
2019-01-07T19:04:36.554Z,1010.23
2019-01-07T19:05:37.935Z,1010.18
2019-01-07T19:06:39.324Z,1010.15
2019-01-07T19:07:40.713Z,1010.07
2019-01-07T19:08:42.092Z,1010.10
2019-01-07T19:09:43.477Z,1010.04
2019-01-07T19:10:44.856Z,1010.01
2019-01-07T19:11:46.236Z,1010.03
2019-01-07T19:12:47.620Z,1009.99
2019-01-07T19:13:49.011Z,1009.96
2019-01-07T19:14:50.392Z,1009.93
2019-01-07T19:15:51.766Z,1009.85
2019-01-07T19:16:53.160Z,1009.81
2019-01-07T19:17:54.527Z,1009.76
2019-01-07T19:18:55.962Z,1009.77
2019-01-07T19:19:57.287Z,1009.72
2019-01-07T19:20:58.665Z,1009.69
2019-01-07T19:22:00.067Z,1009.68
2019-01-07T19:23:01.447Z,1009.64
2019-01-07T19:24:02.829Z,1009.63
2019-01-07T19:25:04.223Z,1009.59
2019-01-07T19:26:05.606Z,1009.58
2019-01-07T19:27:06.985Z,1009.55
2019-01-07T19:28:08.364Z,1009.50
2019-01-07T19:29:09.758Z,1009.48
2019-01-07T19:30:11.140Z,1009.43
2019-01-07T19:31:12.525Z,1009.35
2019-01-07T19:32:13.918Z,1009.34
2019-01-07T19:33:15.305Z,1009.31
2019-01-07T19:34:16.690Z,1009.28
2019-01-07T19:35:18.082Z,1009.23
2019-01-07T19:36:19.477Z,1009.23
2019-01-07T19:37:20.872Z,1009.17
2019-01-07T19:38:22.253Z,1009.15
2019-01-07T19:39:23.636Z,1009.08
2019-01-07T19:40:25.014Z,1009.06
2019-01-07T19:41:26.394Z,1009.01
2019-01-07T19:42:27.785Z,1008.99
2019-01-07T19:43:29.168Z,1008.99
2019-01-07T19:44:30.549Z,1008.91
2019-01-07T19:45:31.940Z,1008.85
2019-01-07T19:46:33.326Z,1008.87
2019-01-07T19:47:34.697Z,1008.89
2019-01-07T19:48:36.090Z,1008.81
2019-01-07T19:49:37.479Z,1008.78
2019-01-07T19:50:38.859Z,1008.76
2019-01-07T19:51:40.244Z,1008.72
2019-01-07T19:52:41.636Z,1008.71
2019-01-07T19:53:43.037Z,1008.69
2019-01-07T19:54:44.426Z,1008.64
2019-01-07T19:55:45.804Z,1008.64
2019-01-07T19:56:47.201Z,1008.60
2019-01-07T19:57:48.578Z,1008.59
2019-01-07T19:58:50.711Z,1008.49
2019-01-07T19:59:52.104Z,1008.50
2019-01-07T20:00:53.488Z,1008.48
2019-01-07T20:01:54.877Z,1008.45
2019-01-07T20:02:56.257Z,1008.44
2019-01-07T20:03:57.634Z,1008.38
2019-01-07T20:04:59.043Z,1008.40
2019-01-07T20:06:00.426Z,1008.36
2019-01-07T20:07:06.386Z,1008.33
2019-01-07T20:08:07.894Z,1008.21
2019-01-07T20:09:09.277Z,1008.19
2019-01-07T20:10:10.676Z,1008.14
2019-01-07T20:11:12.070Z,1008.12
2019-01-07T20:12:13.585Z,1008.12
2019-01-07T20:13:14.981Z,1008.10
2019-01-07T20:14:16.357Z,1008.08
2019-01-07T20:15:17.838Z,1007.98
2019-01-07T20:16:23.135Z,1007.99
2019-01-07T20:17:20.579Z,1007.92
2019-01-07T20:18:22.110Z,1007.89
2019-01-07T20:19:23.496Z,1007.89
2019-01-07T20:20:24.998Z,1007.87
2019-01-07T20:21:26.399Z,1007.82
2019-01-07T20:22:27.779Z,1007.78
2019-01-07T20:23:29.309Z,1007.80
2019-01-07T20:24:30.703Z,1007.71
2019-01-07T20:25:32.082Z,1007.69
2019-01-07T20:26:33.467Z,1007.68
2019-01-07T20:27:43.260Z,1007.64
2019-01-07T20:28:44.597Z,1007.56
2019-01-07T20:29:46.226Z,1007.57
2019-01-07T20:30:47.639Z,1007.48
2019-01-07T20:31:49.020Z,1007.47
2019-01-07T20:32:50.656Z,1007.40
2019-01-07T20:33:52.045Z,1007.37
2019-01-07T20:34:53.560Z,1007.38
2019-01-07T20:35:55.028Z,1007.35
2019-01-07T20:36:56.409Z,1007.34
2019-01-07T20:37:57.952Z,1007.34
2019-01-07T20:38:59.335Z,1007.31
2019-01-07T20:40:00.724Z,1007.22
2019-01-07T20:41:02.152Z,1007.23
2019-01-07T20:42:03.538Z,1007.19
2019-01-07T20:43:04.917Z,1007.18
2019-01-07T20:44:06.294Z,1007.11
2019-01-07T20:45:07.782Z,1007.11
2019-01-07T20:46:09.165Z,1007.08
2019-01-07T20:47:10.556Z,1007.08
2019-01-07T20:48:12.113Z,1007.03
2019-01-07T20:49:16.332Z,1007.07
2019-01-07T20:50:15.291Z,1006.97
2019-01-07T20:51:16.668Z,1006.97
2019-01-07T20:52:18.131Z,1006.93
2019-01-07T20:53:19.517Z,1006.91
2019-01-07T20:54:20.913Z,1006.86
2019-01-07T20:55:22.297Z,1006.88
2019-01-07T20:56:23.703Z,1006.80
2019-01-07T20:57:25.086Z,1006.77
2019-01-07T20:58:26.500Z,1006.71
2019-01-07T20:59:27.890Z,1006.67
2019-01-07T21:00:29.304Z,1006.63
2019-01-07T21:01:30.695Z,1006.59
2019-01-07T21:02:32.078Z,1006.60
2019-01-07T21:03:33.554Z,1006.50
2019-01-07T21:04:34.941Z,1006.58
2019-01-07T21:05:36.328Z,1006.54
2019-01-07T21:06:37.752Z,1006.47
2019-01-07T21:07:39.140Z,1006.46
2019-01-07T21:08:40.516Z,1006.41
2019-01-07T21:09:41.918Z,1006.41
2019-01-07T21:10:43.257Z,1006.33
2019-01-07T21:11:44.637Z,1006.35
2019-01-07T21:12:46.026Z,1006.29
2019-01-07T21:13:47.406Z,1006.28
2019-01-07T21:14:48.788Z,1006.27
2019-01-07T21:15:50.177Z,1006.26
2019-01-07T21:16:51.587Z,1006.20
2019-01-07T21:17:52.979Z,1006.19
2019-01-07T21:18:54.373Z,1006.14
2019-01-07T21:19:55.759Z,1006.08
2019-01-07T21:20:57.150Z,1006.07
2019-01-07T21:21:58.526Z,1006.10
2019-01-07T21:22:59.921Z,1006.01
2019-01-07T21:24:01.302Z,1005.99
2019-01-07T21:25:02.716Z,1006.01
2019-01-07T21:26:04.073Z,1005.97
2019-01-07T21:27:05.468Z,1005.80
2019-01-07T21:28:06.847Z,1005.93
2019-01-07T21:29:08.225Z,1005.92
2019-01-07T21:30:09.605Z,1005.89
2019-01-07T21:31:10.950Z,1005.88
2019-01-07T21:32:12.324Z,1005.87
